Terminal Aerodrome Forecast
Issued by NWS Knoxville/Tri Cities, TN

Home | Current Version | Previous Version | Text Only | Print | Product List | Glossary On
Versions: 1 2 3 4 5 6 7 8 9 10 11 12 13 14 15 16 17 18 19 20
000
FTUS44 KMRX 281121
TAFTYS
TAF
KTYS 281121Z 2812/2912 VRB04KT 6SM -RA BR BKN009 OVC022
     FM281400 24003KT 3SM -RA BR BKN005 OVC015
     FM281800 VRB03KT 3SM -DZ BR OVC007
     FM290200 34005KT 3SM -RA BR OVC007
     FM290700 33004KT 4SM -DZ BR BKN006 OVC012=

USA.gov is the U.S. government's official web portal to all federal, state and local government web resources and services.